This is the latest recevied weather packets stored in our database for station/object K7LDN-13. If no packets are shown the sender has not sent any weather packets the latest 10 day(s).
| Time | Temp. | Humidity | Pressure | Rain* | Wind** | Luminosity | Snow |
|---|---|---|---|---|---|---|---|
| 1777607305 | 11.67° C | 37% | 1020.1 hPa | 0 mm | - | 0 W/m² | - |
| 1777607001 | 11.67° C | 37% | 1020.3 hPa | 0 mm | - | 0 W/m² | - |
| 1777606697 | 12.22° C | 37% | 1020.2 hPa | 0 mm | - | 0 W/m² | - |
| 1777606393 | 12.22° C | 36% | 1020.2 hPa | 0 mm | - | 0 W/m² | - |
| 1777606088 | 12.22° C | 36% | 1020.1 hPa | 0 mm | - | 0 W/m² | - |
| 1777605784 | 12.22° C | 35% | 1019.9 hPa | 0 mm | - | 0 W/m² | - |
| 1777605483 | 12.22° C | 35% | 1020.1 hPa | 0 mm | - | 0 W/m² | - |
| 1777605180 | 12.22° C | 34% | 1020.1 hPa | 0 mm | - | 0 W/m² | - |
| 1777604875 | 12.22° C | 35% | 1020.1 hPa | 0 mm | - | 0 W/m² | - |
| 1777604571 | 12.22° C | 35% | 1020.2 hPa | 0 mm | - | 0 W/m² | - |
| 1777604268 | 12.22° C | 35% | 1019.7 hPa | 0 mm | - | 0 W/m² | - |
| 1777603963 | 12.78° C | 35% | 1019.9 hPa | 0 mm | - | 0 W/m² | - |
| 1777603660 | 13.33° C | 33% | 1019.8 hPa | 0 mm | - | 0 W/m² | - |
| 1777603357 | 13.33° C | 31% | 1019.8 hPa | 0 mm | - | 0 W/m² | - |
| 1777603052 | 13.89° C | 31% | 1019.7 hPa | 0 mm | - | 0 W/m² | - |
| 1777602747 | 13.89° C | 32% | 1019.8 hPa | 0 mm | - | 1 W/m² | - |
| 1777602442 | 13.89° C | 31% | 1019.8 hPa | 0 mm | - | 2 W/m² | - |
| 1777602139 | 13.89° C | 31% | 1019.6 hPa | 0 mm | - | 4 W/m² | - |
| 1777600315 | 15° C | 30% | 1019.6 hPa | 0 mm | - | 30 W/m² | - |
| 1777586030 | 16.67° C | 31% | 1019.9 hPa | 0 mm | - | 750 W/m² | - |
| 1777585725 | 17.22° C | 31% | 1020.1 hPa | 0 mm | - | 745 W/m² | - |
| 1777585425 | 16.67° C | 30% | 1020.2 hPa | 0 mm | - | 823 W/m² | - |
| 1777583910 | 16.67° C | 28% | 1020.4 hPa | 0 mm | - | 819 W/m² | - |
| 1777583305 | 16.67° C | 30% | 1020.3 hPa | 0 mm | - | 789 W/m² | - |
| 1777582392 | 16.67° C | 26% | 1020.5 hPa | 0 mm | - | 833 W/m² | - |
* Rain latest hour (hover to see other rain measurements)
** Current wind speed in m/s (hover to see current wind gust speed)